Time;durP1;ratioP1;P1;durP2;ratioP2;P2;SDS_P1;SDS_P2;PMS_P1;PMS_P2;Temp;Humidity;BMP_temperature;BMP_pressure;BME280_temperature;BME280_humidity;BME280_pressure;Samples;Min_cycle;Max_cycle;Signal;HPM_P1;HPM_P2
2023/05/09 00:02:22;;;;;;;9.03;7.20;;;16.30;99.90;;;;;;5071084;28;20468;-81
2023/05/09 00:04:49;;;;;;;8.47;7.67;;;16.10;99.90;;;;;;5076503;28;20462;-81
2023/05/09 00:07:16;;;;;;;8.97;8.07;;;16.00;99.90;;;;;;5075762;28;20457;-80
2023/05/09 00:09:42;;;;;;;9.10;8.13;;;16.00;99.90;;;;;;5074181;28;20518;-82
2023/05/09 00:12:11;;;;;;;8.63;7.80;;;15.90;99.90;;;;;;5076354;28;20585;-81
2023/05/09 00:14:39;;;;;;;10.67;9.67;;;15.90;99.90;;;;;;5066910;28;20497;-79
2023/05/09 00:17:06;;;;;;;10.37;8.90;;;15.80;99.90;;;;;;5084610;28;20527;-81
2023/05/09 00:19:33;;;;;;;11.23;8.57;;;15.70;99.90;;;;;;5080521;28;20553;-82
2023/05/09 00:22:00;;;;;;;8.90;7.97;;;15.70;99.90;;;;;;5084380;28;20444;-81
2023/05/09 00:24:27;;;;;;;9.63;8.73;;;15.70;99.90;;;;;;5076960;28;21119;-81
2023/05/09 00:26:53;;;;;;;14.00;9.73;;;15.70;99.90;;;;;;5073450;28;20460;-82
2023/05/09 00:29:22;;;;;;;10.40;9.33;;;15.60;99.90;;;;;;5076409;28;20447;-82
2023/05/09 00:31:48;;;;;;;10.50;9.50;;;15.60;99.90;;;;;;5072495;28;20509;-83
2023/05/09 00:34:15;;;;;;;12.77;10.47;;;15.60;99.90;;;;;;5076419;28;20494;-81
2023/05/09 00:36:42;;;;;;;10.60;9.60;;;15.60;99.90;;;;;;5071982;28;20462;-82
2023/05/09 00:39:09;;;;;;;11.47;10.37;;;15.60;99.90;;;;;;5075906;28;20454;-81
2023/05/09 00:41:36;;;;;;;13.00;10.30;;;15.60;99.90;;;;;;5076278;28;20455;-82
2023/05/09 00:44:03;;;;;;;11.17;10.07;;;15.60;99.90;;;;;;5073865;28;20539;-81
2023/05/09 00:46:31;;;;;;;10.43;9.43;;;15.60;99.90;;;;;;5076029;28;20508;-82
2023/05/09 00:48:58;;;;;;;11.53;10.20;;;15.60;99.90;;;;;;5073240;28;20462;-82
2023/05/09 00:51:25;;;;;;;11.90;10.70;;;15.50;99.90;;;;;;5076401;28;21717;-82
2023/05/09 00:53:52;;;;;;;10.57;9.47;;;15.50;99.90;;;;;;5069543;28;20497;-82
2023/05/09 00:56:20;;;;;;;11.03;9.93;;;15.40;99.90;;;;;;5076160;28;20485;-81
2023/05/09 00:58:47;;;;;;;11.70;10.60;;;15.40;99.90;;;;;;5076089;28;20459;-81
2023/05/09 01:01:15;;;;;;;11.00;10.00;;;15.40;99.90;;;;;;5072667;28;20974;-81
2023/05/09 01:03:43;;;;;;;11.07;10.07;;;15.40;99.90;;;;;;5075156;28;20478;-81
2023/05/09 01:06:17;;;;;;;12.10;10.50;;;15.30;99.90;;;;;;5070037;28;20482;-82
2023/05/09 01:08:49;;;;;;;12.33;10.60;;;15.20;99.90;;;;;;5076477;28;20443;-82
2023/05/09 01:11:22;;;;;;;14.03;11.17;;;15.20;99.90;;;;;;5076821;28;21061;-81
2023/05/09 01:13:57;;;;;;;11.33;9.77;;;15.20;99.90;;;;;;5078967;28;20846;-80
2023/05/09 01:16:30;;;;;;;11.57;10.47;;;15.20;99.90;;;;;;5080291;28;20430;-82
2023/05/09 01:19:07;;;;;;;12.20;10.57;;;15.20;99.90;;;;;;5076181;28;20458;-82
2023/05/09 01:21:35;;;;;;;12.83;11.60;;;15.10;99.90;;;;;;5076227;28;20457;-81
2023/05/09 01:24:24;;;;;;;11.73;10.53;;;15.20;99.90;;;;;;5076081;28;20478;-79
2023/05/09 01:27:09;;;;;;;11.70;10.10;;;15.20;99.90;;;;;;5079968;28;20483;-82
2023/05/09 01:29:42;;;;;;;10.60;9.53;;;15.20;99.90;;;;;;5079512;28;20464;-81
2023/05/09 01:32:14;;;;;;;12.10;10.80;;;15.20;99.90;;;;;;5078234;28;20478;-83
2023/05/09 01:34:43;;;;;;;11.80;9.50;;;15.30;99.90;;;;;;5079066;28;20485;-80
2023/05/09 01:37:12;;;;;;;12.13;10.93;;;15.30;99.90;;;;;;5076286;28;20492;-80
2023/05/09 01:39:42;;;;;;;9.90;9.00;;;15.40;99.90;;;;;;5078740;28;20461;-80
2023/05/09 01:42:11;;;;;;;12.97;10.87;;;15.40;99.90;;;;;;5073820;28;20447;-81
2023/05/09 01:44:43;;;;;;;10.73;9.20;;;15.40;99.90;;;;;;5075170;28;20490;-79
2023/05/09 01:47:11;;;;;;;10.97;9.87;;;15.40;99.90;;;;;;5079421;28;20830;-82
2023/05/09 01:49:39;;;;;;;10.97;9.80;;;15.40;99.90;;;;;;5074709;28;20477;-80
2023/05/09 01:52:11;;;;;;;10.80;9.70;;;15.50;99.90;;;;;;5078718;28;20511;-82
2023/05/09 01:54:40;;;;;;;15.27;11.70;;;15.50;99.90;;;;;;5072868;28;20478;-80
2023/05/09 01:57:58;;;;;;;12.53;10.80;;;15.50;99.90;;;;;;5077642;28;20493;-82
2023/05/09 02:00:27;;;;;;;10.80;9.80;;;15.50;99.90;;;;;;5072239;28;20474;-81
2023/05/09 02:02:55;;;;;;;10.63;9.63;;;15.50;99.90;;;;;;5078714;28;20459;-81
2023/05/09 02:05:27;;;;;;;11.17;10.00;;;15.50;99.90;;;;;;5078070;28;20444;-80
2023/05/09 02:07:57;;;;;;;10.20;9.20;;;15.50;99.90;;;;;;5075899;28;20447;-81
2023/05/09 02:10:25;;;;;;;10.40;9.30;;;15.50;99.90;;;;;;5079578;28;20450;-81
2023/05/09 02:12:52;;;;;;;12.17;10.03;;;15.50;99.90;;;;;;5074050;28;20486;-80
2023/05/09 02:15:22;;;;;;;11.63;10.37;;;15.50;99.90;;;;;;5078347;28;20465;-82
2023/05/09 02:17:50;;;;;;;13.63;11.90;;;15.40;99.90;;;;;;5076468;28;21147;-79
2023/05/09 02:20:17;;;;;;;11.47;10.37;;;15.40;99.90;;;;;;5078306;28;20450;-82
2023/05/09 02:22:44;;;;;;;12.00;10.70;;;15.40;99.90;;;;;;5077294;28;20477;-81
2023/05/09 02:25:14;;;;;;;10.57;9.47;;;15.40;99.90;;;;;;5072330;28;20478;-82
2023/05/09 02:27:41;;;;;;;14.07;11.27;;;15.50;99.90;;;;;;5078512;28;20450;-82
2023/05/09 02:30:12;;;;;;;11.43;10.23;;;15.40;99.90;;;;;;5090503;28;20481;-82
2023/05/09 02:32:40;;;;;;;13.37;11.77;;;15.40;99.90;;;;;;5077528;28;20487;-81
2023/05/09 02:35:09;;;;;;;11.87;10.77;;;15.40;99.90;;;;;;5078115;28;20447;-81
2023/05/09 02:37:37;;;;;;;12.17;10.97;;;15.40;99.90;;;;;;5073753;28;20466;-82
2023/05/09 02:40:07;;;;;;;16.10;14.40;;;15.40;99.90;;;;;;5078230;28;20507;-81
2023/05/09 02:42:35;;;;;;;13.73;11.77;;;15.20;99.90;;;;;;5073802;28;20479;-82
2023/05/09 02:45:02;;;;;;;14.83;11.73;;;15.40;99.90;;;;;;5078504;28;20454;-80
2023/05/09 02:47:28;;;;;;;12.30;11.00;;;15.40;99.90;;;;;;5076570;28;20479;-82
2023/05/09 02:49:55;;;;;;;14.30;10.43;;;15.40;99.90;;;;;;5074832;28;20457;-82
2023/05/09 02:52:23;;;;;;;15.63;13.97;;;15.40;99.90;;;;;;5077848;28;20489;-79
2023/05/09 02:54:50;;;;;;;15.37;12.47;;;15.50;99.90;;;;;;5075319;28;20462;-80
2023/05/09 02:57:17;;;;;;;14.53;13.00;;;15.50;99.90;;;;;;5077880;28;20464;-82
2023/05/09 02:59:44;;;;;;;14.57;13.00;;;15.50;99.90;;;;;;5075808;28;20466;-82
2023/05/09 03:02:10;;;;;;;16.00;13.00;;;15.60;99.90;;;;;;5077569;28;20455;-83
2023/05/09 03:04:37;;;;;;;14.90;12.83;;;15.60;99.90;;;;;;5077533;28;20848;-80
2023/05/09 03:07:04;;;;;;;13.23;11.50;;;15.60;99.90;;;;;;5070802;28;20462;-81
2023/05/09 03:09:32;;;;;;;13.47;12.03;;;15.60;99.90;;;;;;5078201;28;20447;-82
2023/05/09 03:11:59;;;;;;;15.23;12.00;;;15.70;99.90;;;;;;5074613;28;20470;-82
2023/05/09 03:14:26;;;;;;;12.30;10.80;;;15.70;99.90;;;;;;5077171;28;20473;-80
2023/05/09 03:16:53;;;;;;;13.90;11.80;;;15.70;99.90;;;;;;5076985;28;20461;-81
2023/05/09 03:19:20;;;;;;;13.20;11.80;;;15.70;99.90;;;;;;5075192;28;20459;-82
2023/05/09 03:21:46;;;;;;;11.77;10.60;;;15.70;99.90;;;;;;5077411;28;20548;-81
2023/05/09 03:24:13;;;;;;;14.03;11.77;;;15.70;99.90;;;;;;5073593;28;20501;-80
2023/05/09 03:26:41;;;;;;;13.47;11.43;;;15.80;99.90;;;;;;5077534;28;20531;-82
2023/05/09 03:29:08;;;;;;;14.77;12.57;;;15.80;99.90;;;;;;5074652;28;20462;-79
2023/05/09 03:31:35;;;;;;;12.13;10.93;;;15.80;99.90;;;;;;5075810;28;20489;-81
2023/05/09 03:34:02;;;;;;;13.90;11.10;;;15.80;99.90;;;;;;5075984;28;20508;-81
2023/05/09 03:36:30;;;;;;;13.60;11.30;;;15.80;99.90;;;;;;5074353;28;20473;-82
2023/05/09 03:38:57;;;;;;;15.93;14.10;;;15.80;99.90;;;;;;5076680;28;20489;-82
2023/05/09 03:41:24;;;;;;;13.23;11.93;;;15.80;99.90;;;;;;5073507;28;20880;-81
2023/05/09 03:43:52;;;;;;;13.70;12.13;;;15.80;99.90;;;;;;5075579;28;20510;-82
2023/05/09 03:46:19;;;;;;;13.97;12.47;;;15.90;99.90;;;;;;5064221;28;20464;-81
2023/05/09 03:48:45;;;;;;;16.03;14.20;;;15.90;99.90;;;;;;5069245;28;20456;-83
2023/05/09 03:51:12;;;;;;;13.60;12.20;;;15.90;99.90;;;;;;5070144;28;20470;-81
2023/05/09 03:53:39;;;;;;;14.20;12.80;;;16.00;99.90;;;;;;5071639;28;20516;-82
2023/05/09 03:56:06;;;;;;;14.00;12.50;;;16.00;99.90;;;;;;5076237;28;20483;-81
2023/05/09 03:58:33;;;;;;;16.77;13.03;;;16.00;99.90;;;;;;5076589;28;20451;-81
2023/05/09 04:01:02;;;;;;;17.20;15.40;;;16.00;99.90;;;;;;5073343;28;20458;-80
2023/05/09 04:03:29;;;;;;;18.10;12.67;;;15.90;99.90;;;;;;5075459;28;20517;-82
2023/05/09 04:05:56;;;;;;;15.23;13.37;;;16.00;99.90;;;;;;5073378;28;20463;-80
2023/05/09 04:08:23;;;;;;;17.70;15.00;;;16.00;99.90;;;;;;5076249;28;20455;-81
2023/05/09 04:10:51;;;;;;;19.07;14.30;;;16.10;99.90;;;;;;5072651;28;20506;-80
2023/05/09 04:13:18;;;;;;;16.83;14.47;;;16.10;99.90;;;;;;5075731;28;20495;-82
2023/05/09 04:15:45;;;;;;;16.80;12.70;;;16.20;99.90;;;;;;5075735;28;20550;-82
2023/05/09 04:18:13;;;;;;;13.70;12.17;;;16.20;99.90;;;;;;5070625;28;20982;-81
2023/05/09 04:20:39;;;;;;;13.13;11.80;;;16.20;99.90;;;;;;5076409;28;20454;-81
2023/05/09 04:23:06;;;;;;;16.27;14.57;;;16.20;99.90;;;;;;5066444;28;20471;-81
2023/05/09 04:25:34;;;;;;;14.37;12.83;;;16.20;99.90;;;;;;5075510;28;20453;-82
2023/05/09 04:28:01;;;;;;;13.57;12.17;;;16.30;99.90;;;;;;5076603;28;20459;-81
2023/05/09 04:30:28;;;;;;;15.40;13.67;;;16.20;99.90;;;;;;5069229;28;20482;-80
2023/05/09 04:32:55;;;;;;;14.40;12.90;;;16.30;99.90;;;;;;5075572;28;20483;-81
2023/05/09 04:35:23;;;;;;;15.00;12.70;;;16.30;99.90;;;;;;5072163;28;20464;-81
2023/05/09 04:37:51;;;;;;;13.93;10.87;;;16.40;99.90;;;;;;5076163;28;20534;-79
2023/05/09 04:40:18;;;;;;;14.50;12.07;;;16.40;99.90;;;;;;5072022;28;20459;-81
2023/05/09 04:42:45;;;;;;;13.20;11.90;;;16.40;99.90;;;;;;5074023;28;20477;-84
2023/05/09 04:45:12;;;;;;;14.80;13.33;;;16.40;99.90;;;;;;5076023;28;20550;-81
2023/05/09 04:47:39;;;;;;;13.47;12.07;;;16.40;99.90;;;;;;5072886;28;20466;-82
2023/05/09 04:50:07;;;;;;;15.80;13.23;;;16.50;99.90;;;;;;5075825;28;20523;-83
2023/05/09 04:52:35;;;;;;;13.53;11.67;;;16.50;99.90;;;;;;5070534;28;20831;-84
2023/05/09 04:55:02;;;;;;;14.37;12.80;;;16.50;99.90;;;;;;5076672;28;20463;-79
2023/05/09 04:57:29;;;;;;;13.07;11.67;;;16.50;99.90;;;;;;5073158;28;20972;-83
2023/05/09 04:59:56;;;;;;;12.47;11.07;;;16.60;99.90;;;;;;5072543;28;20891;-81
2023/05/09 05:02:24;;;;;;;13.50;12.10;;;16.60;99.90;;;;;;5074613;28;20448;-79
2023/05/09 05:04:50;;;;;;;15.47;13.80;;;16.60;99.90;;;;;;5069513;28;20458;-79
2023/05/09 05:07:17;;;;;;;17.80;13.47;;;16.60;99.90;;;;;;5072273;28;20466;-81
2023/05/09 05:09:45;;;;;;;14.60;11.10;;;16.60;99.90;;;;;;5044605;28;20968;-80
2023/05/09 05:12:12;;;;;;;14.53;12.47;;;16.60;99.90;;;;;;5070253;28;20492;-80
2023/05/09 05:14:39;;;;;;;15.47;12.50;;;16.60;99.90;;;;;;5072601;28;20905;-82
2023/05/09 05:17:06;;;;;;;14.17;12.77;;;16.60;99.90;;;;;;5069668;28;20455;-81
2023/05/09 05:19:33;;;;;;;18.37;16.47;;;16.70;99.90;;;;;;5083140;28;20523;-81
2023/05/09 05:22:00;;;;;;;18.53;14.60;;;16.60;99.90;;;;;;5073358;28;20456;-81
2023/05/09 05:24:27;;;;;;;14.50;11.77;;;16.60;99.90;;;;;;5070585;28;20944;-79
2023/05/09 05:26:55;;;;;;;14.17;12.73;;;16.70;99.90;;;;;;5068873;28;20456;-81
2023/05/09 05:29:22;;;;;;;14.80;12.53;;;16.70;99.90;;;;;;5072480;28;20449;-82
2023/05/09 05:31:48;;;;;;;12.47;11.17;;;16.70;99.90;;;;;;5073992;28;20451;-82
2023/05/09 05:34:16;;;;;;;12.37;11.13;;;16.80;99.90;;;;;;5071773;28;20494;-79
2023/05/09 05:36:43;;;;;;;13.00;11.70;;;16.90;99.90;;;;;;5074804;28;20456;-82
2023/05/09 05:39:09;;;;;;;12.53;10.90;;;16.90;99.90;;;;;;5071900;28;20454;-81
2023/05/09 05:41:36;;;;;;;15.67;13.57;;;17.00;99.90;;;;;;5072535;28;20940;-80
2023/05/09 05:44:05;;;;;;;16.67;13.97;;;17.10;99.90;;;;;;5074181;28;20476;-81
2023/05/09 05:46:31;;;;;;;21.27;16.80;;;17.10;99.90;;;;;;5070376;28;20522;-82
2023/05/09 05:48:58;;;;;;;17.20;15.40;;;17.10;99.90;;;;;;5073622;28;20464;-80
2023/05/09 05:51:25;;;;;;;16.27;14.57;;;17.20;99.90;;;;;;5075080;28;20467;-80
2023/05/09 05:53:52;;;;;;;16.30;14.30;;;17.30;99.90;;;;;;5069776;28;20853;-81
2023/05/09 05:56:19;;;;;;;19.33;17.33;;;17.40;99.90;;;;;;5079000;28;20459;-80
2023/05/09 05:58:46;;;;;;;18.37;16.43;;;17.30;99.90;;;;;;5072149;28;20465;-83
2023/05/09 06:01:14;;;;;;;18.10;15.40;;;17.40;99.90;;;;;;5078107;28;21037;-80
2023/05/09 06:03:41;;;;;;;17.63;15.50;;;17.50;99.90;;;;;;5080016;28;20469;-82
2023/05/09 06:06:08;;;;;;;18.73;16.73;;;17.60;99.90;;;;;;5075261;28;20501;-85
2023/05/09 06:08:38;;;;;;;17.70;15.80;;;17.40;99.90;;;;;;5081678;28;20484;-82
2023/05/09 06:11:07;;;;;;;19.30;17.30;;;17.70;99.90;;;;;;5075962;28;20999;-83
2023/05/09 06:13:41;;;;;;;16.80;14.77;;;17.90;99.90;;;;;;5078638;28;20511;-80
2023/05/09 06:16:17;;;;;;;18.10;14.60;;;18.30;99.90;;;;;;5078489;28;20450;-82
2023/05/09 06:18:50;;;;;;;19.13;14.77;;;18.40;55.10;;;;;;5076196;28;21193;-84
2023/05/09 06:21:27;;;;;;;18.97;15.27;;;18.60;31.40;;;;;;5077672;28;20448;-82
2023/05/09 06:24:14;;;;;;;20.50;17.00;;;18.60;41.60;;;;;;5072063;28;20489;-82
2023/05/09 06:26:47;;;;;;;18.60;15.90;;;18.60;36.40;;;;;;5075311;28;20467;-86
2023/05/09 06:29:17;;;;;;;17.57;15.77;;;18.80;16.20;;;;;;5081203;28;20446;-83
2023/05/09 06:31:57;;;;;;;15.43;13.83;;;18.90;8.70;;;;;;5077779;28;21012;-81
2023/05/09 06:34:25;;;;;;;19.03;17.13;;;19.10;17.80;;;;;;5068929;28;20526;-83
2023/05/09 06:36:52;;;;;;;15.13;13.63;;;19.00;1.00;;;;;;5070251;28;20451;-83
2023/05/09 06:39:19;;;;;;;18.63;13.70;;;19.10;1.00;;;;;;5075988;28;20487;-83
2023/05/09 06:41:46;;;;;;;18.37;14.43;;;19.10;7.10;;;;;;5070765;28;20793;-82
2023/05/09 06:44:13;;;;;;;15.93;14.23;;;19.30;1.00;;;;;;5072070;28;20949;-83
2023/05/09 06:46:39;;;;;;;15.00;13.23;;;19.50;1.00;;;;;;5073928;28;20467;-83
2023/05/09 06:49:06;;;;;;;13.17;11.80;;;19.60;1.00;;;;;;5076652;28;20455;-83
2023/05/09 06:51:35;;;;;;;15.30;13.03;;;19.80;1.00;;;;;;5079999;28;20455;-82
2023/05/09 06:54:02;;;;;;;13.93;12.53;;;19.80;1.00;;;;;;5068863;28;20492;-82
2023/05/09 06:56:29;;;;;;;13.73;12.43;;;19.90;1.00;;;;;;5076144;28;20466;-81
2023/05/09 06:58:55;;;;;;;13.97;12.63;;;20.20;1.00;;;;;;5074971;28;20491;-83
2023/05/09 07:01:22;;;;;;;12.00;10.83;;;20.10;1.00;;;;;;5076092;28;20447;-82
2023/05/09 07:03:49;;;;;;;14.80;13.30;;;20.20;1.00;;;;;;5080440;28;20466;-81
2023/05/09 07:06:16;;;;;;;12.60;11.40;;;20.50;1.00;;;;;;5076422;28;20486;-81
2023/05/09 07:08:44;;;;;;;13.47;12.07;;;20.90;1.00;;;;;;5073804;28;20487;-84
2023/05/09 07:11:11;;;;;;;13.13;11.73;;;20.90;1.00;;;;;;5079064;28;20463;-82
2023/05/09 07:13:38;;;;;;;13.17;11.87;;;21.00;1.00;;;;;;5075987;28;20865;-82
2023/05/09 07:16:05;;;;;;;15.03;12.90;;;21.00;99.90;;;;;;5076368;28;20455;-82
2023/05/09 07:18:32;;;;;;;11.53;10.33;;;21.00;99.90;;;;;;5074527;28;20477;-85
2023/05/09 07:20:59;;;;;;;11.23;10.17;;;20.90;99.90;;;;;;5078239;28;20479;-84
2023/05/09 07:23:26;;;;;;;12.17;10.67;;;20.80;1.00;;;;;;5078257;28;20478;-81
2023/05/09 07:25:58;;;;;;;12.37;11.07;;;21.00;1.00;;;;;;5075724;28;20458;-82
2023/05/09 07:28:25;;;;;;;10.40;9.30;;;21.00;1.00;;;;;;5079096;28;20477;-81
2023/05/09 07:30:51;;;;;;;9.23;8.37;;;21.00;99.90;;;;;;5079703;28;20545;-83
2023/05/09 07:33:18;;;;;;;9.40;8.27;;;21.10;99.90;;;;;;5074164;28;20574;-83
2023/05/09 07:35:45;;;;;;;10.07;8.97;;;21.30;99.90;;;;;;5080695;28;20550;-82
2023/05/09 07:38:12;;;;;;;11.10;10.00;;;21.30;99.90;;;;;;5077872;28;20447;-82
2023/05/09 07:40:40;;;;;;;9.80;8.10;;;21.30;99.90;;;;;;5078189;28;20526;-80
2023/05/09 07:43:08;;;;;;;10.00;9.10;;;21.40;99.90;;;;;;5074848;28;20530;-82
2023/05/09 07:45:35;;;;;;;11.50;10.03;;;21.40;99.90;;;;;;5078001;28;20848;-83
2023/05/09 07:48:02;;;;;;;10.50;9.40;;;21.30;99.90;;;;;;5074772;28;20546;-80
2023/05/09 07:50:29;;;;;;;9.40;8.50;;;21.60;99.90;;;;;;5077222;28;20457;-82
2023/05/09 07:52:56;;;;;;;8.93;8.13;;;21.60;1.00;;;;;;5076819;28;20532;-83
2023/05/09 07:55:22;;;;;;;9.13;8.23;;;21.60;99.90;;;;;;5075322;28;20487;-82
2023/05/09 07:57:49;;;;;;;13.10;8.33;;;21.40;99.90;;;;;;5075439;28;20465;-80
2023/05/09 08:00:22;;;;;;;10.53;9.33;;;21.90;99.90;;;;;;5078052;28;20474;-82
2023/05/09 08:02:49;;;;;;;9.23;8.33;;;22.10;99.90;;;;;;5076660;28;20513;-82
2023/05/09 08:05:16;;;;;;;12.90;9.13;;;22.40;1.00;;;;;;5076157;28;20489;-82
2023/05/09 08:07:42;;;;;;;10.87;8.20;;;22.60;1.00;;;;;;5082249;28;20483;-86
2023/05/09 08:10:10;;;;;;;7.90;7.20;;;22.60;1.00;;;;;;5082034;28;20546;-84
2023/05/09 08:12:37;;;;;;;8.07;7.30;;;22.20;1.00;;;;;;5077436;28;20513;-82
2023/05/09 08:15:04;;;;;;;7.67;6.97;;;22.00;1.00;;;;;;5078035;28;20504;-81
2023/05/09 08:17:32;;;;;;;7.57;6.50;;;21.30;72.60;;;;;;5069787;28;20463;-83
2023/05/09 08:19:59;;;;;;;6.87;6.17;;;21.10;1.00;;;;;;5068791;28;20542;-80
2023/05/09 08:22:26;;;;;;;8.47;7.03;;;21.10;99.90;;;;;;5069429;28;20517;-80
2023/05/09 08:24:53;;;;;;;9.73;5.67;;;21.20;99.90;;;;;;5069973;28;20458;-82
2023/05/09 08:27:20;;;;;;;7.80;6.40;;;21.60;99.90;;;;;;5070137;28;20574;-81
2023/05/09 08:29:46;;;;;;;7.87;7.07;;;21.90;99.90;;;;;;5066844;28;20841;-82
2023/05/09 08:32:13;;;;;;;6.73;5.87;;;21.70;17.30;;;;;;5063336;28;20554;-81
2023/05/09 08:34:42;;;;;;;6.60;5.00;;;21.80;99.90;;;;;;5073513;28;20498;-83
2023/05/09 08:37:08;;;;;;;7.10;6.40;;;22.10;99.90;;;;;;5069049;28;20450;-82
2023/05/09 08:39:35;;;;;;;6.80;6.17;;;22.30;1.00;;;;;;5071127;28;20490;-82
2023/05/09 08:42:02;;;;;;;6.23;4.77;;;22.60;1.00;;;;;;5065016;28;20555;-83
2023/05/09 08:44:31;;;;;;;5.30;4.80;;;22.90;99.90;;;;;;5073149;28;20562;-81
2023/05/09 08:46:59;;;;;;;6.65;5.60;;;23.40;99.90;;;;;;5067680;28;20479;-82
2023/05/09 08:49:26;;;;;;;5.20;4.70;;;23.50;99.90;;;;;;5070878;28;20208;-82
2023/05/09 08:51:55;;;;;;;5.53;5.03;;;24.10;81.70;;;;;;5074210;28;20443;-82
2023/05/09 08:54:23;;;;;;;5.93;4.87;;;24.80;1.00;;;;;;5065987;28;20491;-82
2023/05/09 08:56:50;;;;;;;5.90;4.37;;;25.70;1.00;;;;;;5070506;28;20458;-80
2023/05/09 08:59:18;;;;;;;5.00;4.40;;;26.00;1.00;;;;;;5073916;28;20455;-84
2023/05/09 09:01:45;;;;;;;6.77;5.27;;;26.10;1.00;;;;;;5073650;28;20520;-82
2023/05/09 09:04:12;;;;;;;4.40;3.80;;;26.40;1.00;;;;;;5071058;28;20983;-81
2023/05/09 09:06:40;;;;;;;5.10;4.00;;;25.90;1.00;;;;;;5077194;28;20538;-82
2023/05/09 09:09:09;;;;;;;4.27;3.87;;;25.80;1.00;;;;;;5072359;28;20442;-83
2023/05/09 09:11:37;;;;;;;4.77;3.63;;;26.20;1.00;;;;;;5069150;28;20820;-83
2023/05/09 09:14:13;;;;;;;4.40;4.00;;;27.40;1.00;;;;;;5074765;28;20498;-79
2023/05/09 09:16:41;;;;;;;7.03;3.20;;;27.50;1.00;;;;;;5075108;28;20447;-81
2023/05/09 09:19:12;;;;;;;5.27;4.20;;;28.30;1.00;;;;;;5076434;28;20465;-83
2023/05/09 09:21:42;;;;;;;4.40;4.00;;;27.80;1.00;;;;;;5075316;28;20450;-81
2023/05/09 09:24:13;;;;;;;3.53;3.23;;;27.10;1.00;;;;;;5067457;28;20463;-83
2023/05/09 09:26:46;;;;;;;4.70;3.50;;;26.60;1.00;;;;;;5069818;28;20447;-84
2023/05/09 09:29:13;;;;;;;6.67;3.63;;;25.80;1.00;;;;;;5065127;28;20451;-82
2023/05/09 09:31:44;;;;;;;5.00;4.40;;;25.20;1.00;;;;;;5077683;28;20447;-81
2023/05/09 09:34:13;;;;;;;6.50;4.03;;;25.10;1.00;;;;;;5080158;28;20501;-83
2023/05/09 09:36:39;;;;;;;3.67;3.37;;;26.20;1.00;;;;;;5080539;28;20450;-84
2023/05/09 09:39:07;;;;;;;3.93;3.53;;;26.60;1.00;;;;;;5079420;28;20450;-86
2023/05/09 09:41:37;;;;;;;5.80;3.20;;;26.70;1.00;;;;;;5078349;28;21105;-83
2023/05/09 09:44:08;;;;;;;4.07;3.47;;;27.00;1.00;;;;;;5079850;28;20557;-83
2023/05/09 09:46:45;;;;;;;7.60;4.20;;;27.90;1.00;;;;;;5080427;28;20541;-85
2023/05/09 09:49:13;;;;;;;4.40;3.90;;;27.80;1.00;;;;;;5080409;28;20465;-83
2023/05/09 09:51:40;;;;;;;4.30;3.63;;;27.80;1.00;;;;;;5079759;28;20453;-83
2023/05/09 09:54:07;;;;;;;3.87;3.50;;;27.60;1.00;;;;;;5080432;28;20561;-84
2023/05/09 09:56:43;;;;;;;4.40;3.50;;;28.10;1.00;;;;;;5085268;28;20458;-83
2023/05/09 09:59:12;;;;;;;6.00;3.40;;;29.30;1.00;;;;;;5088454;28;20443;-83
2023/05/09 10:01:59;;;;;;;3.43;3.13;;;30.00;99.90;;;;;;5088119;28;20451;-81
2023/05/09 10:04:28;;;;;;;2.83;2.20;;;31.10;99.90;;;;;;5088549;28;20493;-84
2023/05/09 10:06:57;;;;;;;3.20;2.30;;;31.30;99.90;;;;;;5092816;28;20472;-83
2023/05/09 10:09:24;;;;;;;3.23;2.40;;;31.30;99.90;;;;;;5091140;28;20519;-83
2023/05/09 10:11:53;;;;;;;3.37;2.40;;;31.10;99.90;;;;;;5092270;28;20510;-81
2023/05/09 10:14:22;;;;;;;3.40;2.20;;;30.80;99.90;;;;;;5079907;28;21100;-83
2023/05/09 10:16:50;;;;;;;2.50;2.10;;;29.90;99.90;;;;;;5083725;28;20455;-81
2023/05/09 10:19:20;;;;;;;3.80;2.87;;;30.20;99.90;;;;;;5080086;28;20459;-82
2023/05/09 10:21:52;;;;;;;3.90;2.77;;;30.80;99.90;;;;;;5079821;28;20458;-83
2023/05/09 10:24:26;;;;;;;2.60;2.20;;;31.00;99.90;;;;;;5081989;28;20550;-83
2023/05/09 10:27:00;;;;;;;2.73;2.30;;;31.00;99.90;;;;;;5079306;28;20461;-82
2023/05/09 10:29:30;;;;;;;3.57;2.60;;;29.80;99.90;;;;;;5072219;28;20509;-82
2023/05/09 10:32:01;;;;;;;2.87;2.20;;;28.70;99.90;;;;;;5068791;28;20460;-84
2023/05/09 10:34:31;;;;;;;3.67;2.60;;;29.10;99.90;;;;;;5075850;28;20884;-81
2023/05/09 10:37:00;;;;;;;3.00;2.47;;;28.50;99.90;;;;;;5078940;28;20477;-82
2023/05/09 10:39:27;;;;;;;3.40;2.53;;;28.20;99.90;;;;;;5076266;28;20447;-83
2023/05/09 10:41:57;;;;;;;3.40;2.50;;;27.80;99.90;;;;;;5077964;28;20446;-82
2023/05/09 10:44:25;;;;;;;3.73;2.43;;;27.60;99.90;;;;;;5076780;28;20471;-82
2023/05/09 10:46:53;;;;;;;3.37;2.60;;;27.70;99.90;;;;;;5078530;28;20541;-82
2023/05/09 10:49:20;;;;;;;3.70;2.60;;;27.90;99.90;;;;;;5077560;28;20459;-84
2023/05/09 10:51:50;;;;;;;3.50;2.70;;;27.50;99.90;;;;;;5078484;28;20458;-83
2023/05/09 10:54:27;;;;;;;4.03;2.80;;;27.00;99.90;;;;;;5072347;28;20570;-85
2023/05/09 10:56:56;;;;;;;4.70;2.93;;;27.30;99.90;;;;;;5081218;28;20446;-82
2023/05/09 10:59:37;;;;;;;3.33;2.27;;;27.50;99.90;;;;;;5079235;28;20553;-85
2023/05/09 11:02:04;;;;;;;9.10;2.63;;;28.40;99.90;;;;;;5078172;28;20454;-83
2023/05/09 11:04:32;;;;;;;4.37;2.43;;;28.00;99.90;;;;;;5080450;28;20469;-81
2023/05/09 11:06:59;;;;;;;2.80;2.50;;;27.40;99.90;;;;;;5074100;28;20454;-82
2023/05/09 11:09:32;;;;;;;3.80;2.50;;;27.10;99.90;;;;;;5074076;28;20451;-80
2023/05/09 11:12:08;;;;;;;2.93;2.53;;;27.10;99.90;;;;;;5076736;28;20462;-82
2023/05/09 11:14:43;;;;;;;3.40;2.60;;;27.30;99.90;;;;;;5075976;28;20474;-82
2023/05/09 11:17:12;;;;;;;4.47;2.30;;;27.60;99.90;;;;;;5080934;28;20472;-84
2023/05/09 11:19:59;;;;;;;3.43;2.50;;;28.40;99.90;;;;;;5076121;28;20478;-82
2023/05/09 11:22:31;;;;;;;3.70;2.60;;;28.30;99.90;;;;;;5068143;28;20447;-82
2023/05/09 11:25:04;;;;;;;3.83;2.50;;;28.40;99.90;;;;;;5071780;28;20460;-82
2023/05/09 11:27:42;;;;;;;2.67;2.40;;;28.10;99.90;;;;;;5068734;28;20478;-82
2023/05/09 11:30:10;;;;;;;3.70;1.97;;;27.80;99.90;;;;;;5073824;28;20462;-83
2023/05/09 11:32:46;;;;;;;2.93;2.20;;;27.80;99.90;;;;;;5070147;28;20463;-83
2023/05/09 11:35:15;;;;;;;2.50;1.70;;;27.20;99.90;;;;;;5075813;28;20592;-82
2023/05/09 11:37:47;;;;;;;2.33;1.80;;;27.00;99.90;;;;;;5074862;28;20838;-81
2023/05/09 11:40:16;;;;;;;2.43;2.00;;;27.20;99.90;;;;;;5069286;28;20482;-80
2023/05/09 11:42:45;;;;;;;2.77;2.33;;;26.90;99.90;;;;;;5073526;28;20554;-81
2023/05/09 11:45:12;;;;;;;3.03;2.20;;;26.40;99.90;;;;;;5074531;28;20451;-80
2023/05/09 11:47:39;;;;;;;3.17;2.53;;;25.90;99.90;;;;;;5072365;28;21005;-80
2023/05/09 11:50:08;;;;;;;2.50;1.90;;;26.40;99.90;;;;;;5076917;28;20524;-81
2023/05/09 11:52:37;;;;;;;3.10;2.03;;;26.80;99.90;;;;;;5073656;28;20482;-82
2023/05/09 11:55:06;;;;;;;4.43;2.63;;;27.40;99.90;;;;;;5075722;28;20483;-81
2023/05/09 11:57:38;;;;;;;3.57;2.10;;;27.60;99.90;;;;;;5076522;28;20455;-81
2023/05/09 12:00:08;;;;;;;2.87;2.27;;;27.80;99.90;;;;;;5074512;28;20967;-82
2023/05/09 12:02:35;;;;;;;3.67;2.00;;;27.70;99.90;;;;;;5072674;28;20950;-82
2023/05/09 12:05:10;;;;;;;2.60;1.60;;;27.30;99.90;;;;;;5074473;28;20453;-82
2023/05/09 12:07:38;;;;;;;3.07;1.97;;;26.80;99.90;;;;;;5074008;28;20466;-81
2023/05/09 12:10:09;;;;;;;3.40;1.97;;;26.60;99.90;;;;;;5067467;28;20511;-83
2023/05/09 12:12:36;;;;;;;3.83;1.77;;;26.40;99.90;;;;;;5076072;28;20489;-82
2023/05/09 12:15:07;;;;;;;2.10;1.60;;;26.00;99.90;;;;;;5074230;28;20479;-84
2023/05/09 12:17:37;;;;;;;6.40;1.80;;;25.70;99.90;;;;;;5080763;28;20455;-82
2023/05/09 12:20:05;;;;;;;2.50;1.97;;;25.50;99.90;;;;;;5073768;28;20440;-81
2023/05/09 12:22:32;;;;;;;4.10;1.90;;;25.60;99.90;;;;;;5072442;28;20546;-81
2023/05/09 12:25:02;;;;;;;3.83;1.97;;;25.60;99.90;;;;;;5076946;28;20526;-83
2023/05/09 12:27:30;;;;;;;6.03;2.43;;;25.60;99.90;;;;;;5071643;28;20466;-82
2023/05/09 12:29:57;;;;;;;3.30;2.50;;;25.70;99.90;;;;;;5075047;28;20465;-82
2023/05/09 12:32:30;;;;;;;2.37;1.93;;;25.70;99.90;;;;;;5069451;28;20447;-81
2023/05/09 12:34:57;;;;;;;2.77;2.10;;;25.90;99.90;;;;;;5075880;28;20458;-81
2023/05/09 12:37:24;;;;;;;3.60;2.33;;;26.50;99.90;;;;;;5075787;28;20458;-82
2023/05/09 12:40:00;;;;;;;5.33;2.27;;;26.70;99.90;;;;;;5070877;28;20498;-80
2023/05/09 12:42:28;;;;;;;2.57;2.07;;;27.20;99.90;;;;;;5069654;28;20463;-82
2023/05/09 12:44:55;;;;;;;2.33;2.10;;;27.50;99.90;;;;;;5074118;28;20454;-81
2023/05/09 12:47:22;;;;;;;2.50;2.23;;;27.80;99.90;;;;;;5075029;28;21244;-82